• Join FlightAware (Why Join?)
  • Login
  • US Flag 
12:57AM EDT


 

Airport Tracker/Info


-or-


 

Live Flight TrackerFlight Track Log ✈ AAY860 ✈ 23-Dec-2013 ✈ KPIE - KLEX

Flight Track Log - Related Links

Times and Time Zones

All times are in EST time to prevent confusion due to time zone crossing. See the AAY860 flight status page for this flight to view local times or setup timezone preferences in your user account.

Time Position Orientation Groundspeed Altitude Reporting Facility
EST Latitude Longitude Course Direction KTS MPH feet Rate Location/Type
07:30AM 27.9000 -82.6833 180° South 150 173 900  Level Tampa TRACON
07:31AM 27.8500 -82.6833 180° South 161 185 2,500 2,040 Climbing Tampa TRACON
07:33AM 27.9036 -82.7586 309° West 222 255 6,800 2,340 Climbing Jacksonville Center
07:34AM 27.9872 -82.7656 356° North 247 284 9,400 2,160 Climbing Jacksonville Center
07:35AM 28.0789 -82.7725 356° North 284 327 11,200 1,860 Climbing Jacksonville Center
07:36AM 28.1833 -82.7819 355° North 332 382 13,200 1,860 Climbing Jacksonville Center
07:37AM 28.2708 -82.7867 357° North 362 417 15,000 1,860 Climbing Jacksonville Center
07:38AM 28.3942 -82.8006 354° North 392 451 17,000 1,800 Climbing Jacksonville Center
07:39AM 28.5108 -82.8242 350° North 411 473 18,700 1,680 Climbing Jacksonville Center
07:40AM 28.6319 -82.8500 349° North 430 495 20,400 1,680 Climbing Jacksonville Center
07:41AM 28.7550 -82.8711 351° North 436 502 22,100 1,500 Climbing Jacksonville Center
07:42AM 28.8825 -82.9019 348° North 449 517 23,500 1,320 Climbing Jacksonville Center
07:43AM 29.0139 -82.9258 351° North 461 531 24,800 1,440 Climbing Jacksonville Center
07:44AM 29.1497 -82.9567 349° North 473 544 26,400 2,100 Climbing Jacksonville Center
07:45AM 29.2769 -82.9806 351° North 478 550 29,000 1,500 Climbing Jacksonville Center
07:46AM 29.4064 -83.0117 348° North 468 539 29,500 900 Climbing Jacksonville Center
07:47AM 29.5525 -83.0406 350° North 482 555 30,900 1,200 Climbing Jacksonville Center
07:48AM 29.6756 -83.0839 343° North 464 534 31,900 720 Climbing Jacksonville Center
07:49AM 29.7944 -83.1414 337° Northwest 470 541 32,400 600 Climbing Jacksonville Center
07:50AM 29.9133 -83.1969 338° Northwest 470 541 33,100 720 Climbing Jacksonville Center
07:51AM 30.0364 -83.2525 339° North 464 534 33,900 420 Climbing Jacksonville Center
07:52AM 30.1531 -83.3058 338° Northwest 464 534 34,000  Climbing Jacksonville Center
07:53AM 30.2719 -83.3639 337° Northwest 458 527 34,000  Level Jacksonville Center
07:54AM 30.3928 -83.4150 340° North 458 527 34,000  Level Jacksonville Center
07:55AM 30.5075 -83.4761 335° Northwest 453 521 34,000  Level Jacksonville Center
07:56AM 30.6283 -83.5250 341° North 453 521 34,000  Level Jacksonville Center
07:57AM 30.7281 -83.5814 334° Northwest 453 521 34,000  Level Jacksonville Center
07:58AM 30.8469 -83.6356 339° North 453 521 34,000  Level Jacksonville Center
07:59AM 30.9614 -83.6944 336° Northwest 453 521 34,000  Level Jacksonville Center
08:00AM 31.0822 -83.7464 340° North 453 521 34,000  Level Jacksonville Center
08:01AM 31.1967 -83.8033 337° Northwest 453 521 34,000  Level Jacksonville Center
08:02AM 31.3897 -83.8953 338° Northwest 464 534 34,000  Level Atlanta Center
08:03AM 31.5067 -83.9561 336° Northwest 458 527 34,000  Level Atlanta Center
08:04AM 31.6361 -83.9853 349° North 458 527 34,100  Climbing Atlanta Center
08:05AM 31.7653 -84.0169 348° North 464 534 34,000 -60 Descending Atlanta Center
08:06AM 31.8822 -84.0436 349° North 469 540 34,000  Level Atlanta Center
08:07AM 32.0117 -84.0706 350° North 474 545 34,000  Level Atlanta Center
08:08AM 32.1453 -84.1025 349° North 474 545 34,000  Level Atlanta Center
08:09AM 32.2767 -84.1272 351° North 474 545 34,000  Level Atlanta Center
08:10AM 32.4103 -84.1594 348° North 479 551 34,000  Level Atlanta Center
08:11AM 32.5458 -84.1842 351° North 484 557 34,000  Level Atlanta Center
08:12AM 32.6775 -84.2214 347° North 484 557 34,100  Climbing Atlanta Center
08:13AM 32.8275 -84.2564 349° North 489 563 34,000  Descending Atlanta Center
08:14AM 32.9467 -84.2864 348° North 489 563 34,100  Climbing Atlanta Center
08:15AM 33.0822 -84.3092 352° North 495 570 34,000 -60 Descending Atlanta Center
08:16AM 33.2178 -84.3492 346° North 495 570 34,000  Level Atlanta Center
08:17AM 33.3533 -84.3719 352° North 495 570 34,000  Level Atlanta Center
08:18AM 33.4869 -84.4075 347° North 490 564 34,100  Climbing Atlanta Center
08:19AM 33.6350 -84.4306 353° North 490 564 34,100 -60 Level Atlanta Center
08:20AM 33.7792 -84.3961 11° North 495 570 34,000 -60 Descending Atlanta Center
08:21AM 33.9233 -84.3717 North 506 582 34,000  Level Atlanta Center
08:22AM 34.0631 -84.3372 12° North 506 582 34,000  Level Atlanta Center
08:23AM 34.1967 -84.3075 10° North 527 606 34,000  Level Atlanta Center
08:24AM 34.3386 -84.3106 359° North 517 595 34,100  Climbing Atlanta Center
08:25AM 34.4828 -84.3108 360° North 512 589 34,000  Descending Atlanta Center
08:26AM 34.6267 -84.3139 359° North 512 589 34,100  Climbing Atlanta Center
08:27AM 34.7706 -84.3219 357° North 517 595 34,000 -60 Descending Atlanta Center
08:28AM 34.9292 -84.3275 358° North 517 595 34,000  Level Atlanta Center
08:29AM 35.0522 -84.3433 354° North 501 577 34,100  Climbing Atlanta Center
08:30AM 35.1983 -84.3439 360° North 501 577 34,000 -60 Descending Atlanta Center
08:31AM 35.3403 -84.3544 357° North 507 583 34,000  Level Atlanta Center
08:32AM 35.4883 -84.3550 360° North 519 597 34,000  Level Atlanta Center
08:33AM 35.6364 -84.3683 356° North 524 603 34,100  Climbing Atlanta Center
08:34AM 35.7847 -84.3689 360° North 524 603 34,000 -180 Descending Atlanta Center
08:35AM 35.9472 -84.3825 356° North 524 603 33,800 -900 Descending Atlanta Center
08:36AM 36.0933 -84.3856 359° North 524 603 32,200 -1,620 Descending Atlanta Center
08:37AM 36.2442 -84.3897 359° North 532 612 30,400 -1,980 Descending Indianapolis Center
08:38AM 36.4225 -84.4019 357° North 536 617 28,000 -1,980 Descending Indianapolis Center
08:39AM 36.5575 -84.4031 360° North 546 628 26,400 -1,860 Descending Indianapolis Center
08:40AM 36.7044 -84.4142 357° North 529 609 24,200 -1,560 Descending Indianapolis Center
08:41AM 36.8436 -84.4164 359° North 505 581 23,300 -1,920 Descending Indianapolis Center
08:42AM 36.9961 -84.4322 355° North 476 548 20,300 -2,940 Descending Indianapolis Center
08:43AM 37.1233 -84.4300 North 457 526 17,300 -3,120 Descending Indianapolis Center
08:44AM 37.2417 -84.4436 355° North 430 495 14,000 -2,100 Descending Indianapolis Center
08:46AM 37.3489 -84.4458 359° North 391 450 13,000 -840 Descending Indianapolis Center
08:47AM 37.4456 -84.4494 358° North 356 410 12,300 -960 Descending Indianapolis Center
08:48AM 37.5339 -84.4533 358° North 326 375 11,100 -1,380 Descending Indianapolis Center
08:49AM 37.6203 -84.4450 North 313 360 9,600 -1,380 Descending Indianapolis Center
08:50AM 37.7031 -84.4456 360° North 302 348 8,300 -1,260 Descending Indianapolis Center
08:51AM 37.7819 -84.4369 North 289 333 7,100 -1,260 Descending Indianapolis Center
08:52AM 37.8647 -84.4364 360° North 261 300 5,800 -1,020 Descending Indianapolis Center
08:53AM 37.9281 -84.4264 North 241 277 5,100 -540 Descending Indianapolis Center
08:54AM 37.9806 -84.4292 358° North 217 250 4,700 -540 Descending Indianapolis Center
08:55AM 38.0328 -84.4172 10° North 206 237 4,000 -540 Descending Indianapolis Center
08:56AM 38.0864 -84.3936 19° North 206 237 3,700 -420 Descending Indianapolis Center
08:57AM 38.1369 -84.3903 North 205 236 3,200 -300 Descending Indianapolis Center
08:58AM 38.1564 -84.4469 294° West 182 209 3,200  Level Indianapolis Center
08:59AM 38.1358 -84.4950 241° Southwest 185 213 3,200 -240 Level Indianapolis Center
09:00AM 38.1072 -84.5281 222° Southwest 160 184 2,800 -480 Descending Indianapolis Center
09:01AM 38.0722 -84.5675 222° Southwest 150 173 2,300 -540 Descending Indianapolis Center